01NE weather

Detour Airport
Wellfleet, Nebraska, United States

Public forecast

Using degrees Fahrenheit for public forecast. Weather courtesy of forecast.io.

Closest aviation weather report (METAR) to Detour Airport

Closest report is North Platte Regional Airport Lee Bird Field, 17.0 nm (31.5 km) N. Retrieved 2019/10/13 21:53 UTC (26 minutes ago):

KLBF 132153Z AUTO VRB03KT 10SM CLR 19/M04 A2992 RMK AO2 SLP136 T01941044

Closest aviation forecast (TAF) to Detour Airport

Closest forecast is North Platte Regional Airport Lee Bird Field, 17.0 nm (31.5 km) N. Retrieved 2019/10/13 18:30 UTC (4 hours ago):

TAF KLBF 131727Z 1318/1418 29005KT P6SM SKC FM140000 00000KT P6SM SKC FM141500 19005KT P6SM FEW250